createdAt,value
2022-10-23T00:03:50.660Z,20.29
2022-10-23T00:10:39.539Z,20.25
2022-10-23T00:17:10.375Z,20.22
2022-10-23T00:23:36.459Z,20.19
2022-10-23T00:30:00.895Z,20.17
2022-10-23T00:36:24.381Z,20.15
2022-10-23T00:42:47.365Z,20.12
2022-10-23T00:49:19.101Z,20.10
2022-10-23T00:56:00.510Z,20.07
2022-10-23T01:02:30.434Z,20.05
2022-10-23T01:09:11.571Z,20.02
2022-10-23T01:23:00.357Z,19.97
2022-10-23T01:29:38.882Z,19.94
2022-10-23T01:36:04.589Z,19.92
2022-10-23T01:42:40.360Z,19.90
2022-10-23T01:49:10.771Z,19.88
2022-10-23T01:55:35.700Z,19.86
2022-10-23T02:01:52.580Z,19.84
2022-10-23T02:08:04.625Z,19.82
2022-10-23T02:14:24.499Z,19.80
2022-10-23T02:20:39.764Z,19.79
2022-10-23T02:27:13.845Z,19.77
2022-10-23T02:33:16.628Z,19.75
2022-10-23T02:39:46.494Z,19.73
2022-10-23T02:46:33.784Z,19.71
2022-10-23T02:53:20.329Z,19.69
2022-10-23T02:59:47.374Z,19.68
2022-10-23T03:06:22.062Z,19.65
2022-10-23T03:12:48.337Z,19.63
2022-10-23T03:25:57.542Z,19.60
2022-10-23T03:32:26.785Z,19.59
2022-10-23T03:52:00.580Z,19.54
2022-10-23T03:58:25.119Z,19.52
2022-10-23T04:11:38.420Z,19.49
2022-10-23T04:17:47.490Z,19.48
2022-10-23T04:30:47.890Z,19.46
2022-10-23T04:36:56.591Z,19.51
2022-10-23T04:43:26.016Z,19.71
2022-10-23T04:50:13.401Z,20.02
2022-10-23T04:56:37.044Z,20.40
2022-10-23T05:03:02.876Z,20.74
2022-10-23T05:09:31.280Z,21.02
2022-10-23T05:16:12.498Z,21.26
2022-10-23T05:22:31.591Z,21.45
2022-10-23T05:28:48.457Z,21.60
2022-10-23T05:35:13.929Z,21.68
2022-10-23T05:41:20.648Z,21.70
2022-10-23T05:47:50.723Z,21.69
2022-10-23T05:54:11.549Z,21.68
2022-10-23T06:00:40.739Z,21.64
2022-10-23T06:07:05.131Z,21.61
2022-10-23T06:13:36.069Z,21.58
2022-10-23T06:26:42.256Z,21.50
2022-10-23T06:32:52.571Z,21.46
2022-10-23T06:39:26.133Z,21.40
2022-10-23T06:45:49.379Z,21.33
2022-10-23T06:52:14.441Z,21.25
2022-10-23T06:59:05.680Z,21.19
2022-10-23T07:05:29.898Z,21.14
2022-10-23T07:11:57.399Z,21.09
2022-10-23T07:18:17.033Z,21.03
2022-10-23T07:24:40.529Z,20.97
2022-10-23T07:31:00.174Z,20.93
2022-10-23T07:37:36.971Z,20.90
2022-10-23T07:44:03.455Z,20.85
2022-10-23T07:50:35.427Z,20.80
2022-10-23T07:57:00.269Z,20.76
2022-10-23T08:03:24.386Z,20.72
2022-10-23T08:09:56.599Z,20.68
2022-10-23T08:16:26.721Z,20.65
2022-10-23T08:22:58.647Z,20.62
2022-10-23T08:29:24.991Z,20.60
2022-10-23T08:35:49.178Z,20.58
2022-10-23T08:42:21.316Z,20.55
2022-10-23T08:48:44.728Z,20.54
2022-10-23T08:55:22.064Z,20.53
2022-10-23T09:02:02.255Z,20.52
2022-10-23T09:08:41.219Z,20.50
2022-10-23T09:15:22.580Z,20.49
2022-10-23T09:21:47.111Z,20.56
2022-10-23T09:28:20.658Z,20.63
2022-10-23T09:34:45.196Z,20.64
2022-10-23T09:41:13.873Z,20.62
2022-10-23T09:47:41.534Z,20.60
2022-10-23T09:53:49.272Z,20.57
2022-10-23T10:00:13.622Z,20.52
2022-10-23T10:06:39.018Z,20.44
2022-10-23T10:13:25.283Z,20.38
2022-10-23T10:20:05.240Z,20.38
2022-10-23T10:26:37.893Z,20.45
2022-10-23T10:33:05.914Z,20.48
2022-10-23T10:39:35.279Z,20.48
2022-10-23T10:46:31.973Z,20.46
2022-10-23T10:53:01.776Z,20.41
2022-10-23T10:59:27.954Z,20.37
2022-10-23T11:05:54.842Z,20.30
2022-10-23T11:12:03.599Z,20.25
2022-10-23T11:18:43.910Z,20.20
2022-10-23T11:25:04.892Z,20.15
2022-10-23T11:31:12.158Z,20.13
2022-10-23T11:37:32.615Z,20.16
2022-10-23T11:44:09.634Z,20.22
2022-10-23T11:57:34.059Z,20.31
2022-10-23T12:04:03.585Z,20.32
2022-10-23T12:10:46.791Z,20.29
2022-10-23T12:30:24.303Z,20.64
2022-10-23T12:36:38.276Z,20.58
2022-10-23T12:43:16.149Z,20.49
2022-10-23T12:50:04.685Z,20.39
2022-10-23T12:56:37.743Z,20.36
2022-10-23T13:02:57.677Z,20.32
2022-10-23T13:09:27.930Z,20.26
2022-10-23T13:16:05.511Z,20.19
2022-10-23T13:36:06.123Z,20.10
2022-10-23T13:42:29.529Z,20.18
2022-10-23T13:48:49.259Z,20.32
2022-10-23T13:54:56.387Z,20.48
2022-10-23T14:01:16.650Z,20.65
2022-10-23T14:07:37.967Z,20.88
2022-10-23T14:13:43.242Z,21.05
2022-10-23T14:20:17.283Z,21.27
2022-10-23T14:26:44.839Z,21.51
2022-10-23T14:33:02.087Z,21.71
2022-10-23T14:39:38.079Z,21.79
2022-10-23T14:46:00.083Z,21.87
2022-10-23T14:52:25.338Z,21.91
2022-10-23T14:58:43.244Z,21.94
2022-10-23T15:05:08.527Z,22.01
2022-10-23T15:11:26.161Z,22.14
2022-10-23T15:17:54.596Z,22.27
2022-10-23T15:24:18.447Z,22.38
2022-10-23T15:30:43.602Z,22.47
2022-10-23T15:37:10.381Z,22.50
2022-10-23T15:43:23.491Z,22.51
2022-10-23T15:49:57.030Z,22.53
2022-10-23T15:56:15.919Z,22.51
2022-10-23T16:02:45.073Z,22.49
2022-10-23T16:09:11.704Z,22.44
2022-10-23T16:15:52.818Z,22.40
2022-10-23T16:28:40.081Z,22.47
2022-10-23T16:34:41.733Z,22.56
2022-10-23T16:40:48.818Z,22.63
2022-10-23T16:47:24.401Z,22.68
2022-10-23T17:00:29.846Z,22.73
2022-10-23T17:06:25.852Z,22.76
2022-10-23T17:12:24.641Z,22.75
2022-10-23T17:18:43.845Z,22.73
2022-10-23T17:31:33.857Z,22.73
2022-10-23T17:37:42.756Z,22.73
2022-10-23T17:43:40.923Z,22.72
2022-10-23T17:50:03.712Z,22.72
2022-10-23T17:56:29.094Z,22.74
2022-10-23T18:02:49.814Z,22.72
2022-10-23T18:08:58.741Z,22.70
2022-10-23T18:15:07.575Z,22.70
2022-10-23T18:21:33.311Z,22.71
2022-10-23T18:34:46.055Z,22.69
2022-10-23T18:41:21.551Z,22.66
2022-10-23T18:54:44.076Z,22.56
2022-10-23T19:01:02.077Z,22.51
2022-10-23T19:07:31.644Z,22.46
2022-10-23T19:13:55.832Z,22.42
2022-10-23T19:20:04.737Z,22.37
2022-10-23T19:26:04.900Z,22.33
2022-10-23T19:32:30.396Z,22.29
2022-10-23T19:38:54.718Z,22.24
2022-10-23T19:45:04.497Z,22.21
2022-10-23T19:51:31.281Z,22.16
2022-10-23T19:57:28.914Z,22.12
2022-10-23T20:04:04.578Z,22.09
2022-10-23T20:10:34.750Z,22.05
2022-10-23T20:16:43.925Z,22.01
2022-10-23T20:23:08.212Z,21.96
2022-10-23T20:29:32.536Z,21.93
2022-10-23T20:35:56.822Z,21.88
2022-10-23T20:42:21.045Z,21.85
2022-10-23T20:48:39.715Z,21.81
2022-10-23T20:55:05.445Z,21.78
2022-10-23T21:01:42.246Z,21.74
2022-10-23T21:14:38.868Z,21.67
2022-10-23T21:28:05.830Z,21.56
2022-10-23T21:34:31.894Z,21.53
2022-10-23T21:54:35.411Z,21.41
2022-10-23T22:00:48.066Z,21.38
2022-10-23T22:07:11.699Z,21.34
2022-10-23T22:13:38.945Z,21.30
2022-10-23T22:20:03.442Z,21.26
2022-10-23T22:26:27.737Z,21.22
2022-10-23T22:32:52.753Z,21.18
2022-10-23T22:39:17.799Z,21.13
2022-10-23T22:45:43.981Z,21.09
2022-10-23T22:52:14.096Z,21.05
2022-10-23T22:58:40.465Z,21.00
2022-10-23T23:04:58.472Z,20.95
2022-10-23T23:11:22.687Z,20.91
2022-10-23T23:17:47.219Z,20.88
2022-10-23T23:24:18.505Z,20.84
2022-10-23T23:37:21.596Z,20.76
2022-10-23T23:43:46.609Z,20.72
2022-10-23T23:50:12.860Z,20.68
2022-10-23T23:56:38.331Z,20.64
